createdAt,value
2019-02-25T00:01:35.812Z,36.60
2019-02-25T00:06:28.496Z,34.90
2019-02-25T00:08:54.603Z,34.80
2019-02-25T00:11:20.915Z,34.90
2019-02-25T00:13:47.000Z,34.80
2019-02-25T00:16:13.159Z,34.80
2019-02-25T00:18:39.239Z,34.80
2019-02-25T00:21:05.288Z,34.80
2019-02-25T00:23:31.386Z,34.70
2019-02-25T00:25:57.441Z,34.70
2019-02-25T00:28:23.520Z,34.70
2019-02-25T00:30:49.591Z,34.70
2019-02-25T00:33:15.678Z,34.60
2019-02-25T00:35:41.753Z,34.60
2019-02-25T00:40:34.569Z,34.60
2019-02-25T00:43:00.944Z,34.60
2019-02-25T00:45:27.273Z,34.50
2019-02-25T00:47:53.373Z,34.40
2019-02-25T00:50:21.232Z,34.40
2019-02-25T01:00:21.549Z,32.50
2019-02-25T01:05:16.027Z,34.40
2019-02-25T01:07:42.108Z,34.30
2019-02-25T01:10:13.121Z,34.20
2019-02-25T01:12:41.568Z,34.20
2019-02-25T01:15:07.866Z,34.20
2019-02-25T01:17:33.903Z,34.20
2019-02-25T01:19:59.948Z,34.10
2019-02-25T01:24:52.546Z,34.10
2019-02-25T01:27:18.623Z,34.10
2019-02-25T01:29:44.700Z,34.10
2019-02-25T01:32:10.744Z,34.10
2019-02-25T01:34:37.115Z,34.00
2019-02-25T01:37:03.451Z,34.00
2019-02-25T01:39:29.567Z,34.10
2019-02-25T01:41:55.906Z,34.00
2019-02-25T01:46:48.399Z,34.00
2019-02-25T01:49:14.584Z,33.90
2019-02-25T01:51:40.641Z,33.90
2019-02-25T01:54:06.937Z,33.90
2019-02-25T01:56:33.029Z,33.90
2019-02-25T01:58:59.392Z,33.90
2019-02-25T02:01:25.723Z,33.90
2019-02-25T02:03:52.048Z,33.90
2019-02-25T02:06:18.485Z,33.80
2019-02-25T02:08:44.817Z,33.80
2019-02-25T02:11:11.151Z,33.80
2019-02-25T02:13:37.197Z,33.80
2019-02-25T02:16:03.391Z,33.80
2019-02-25T02:18:29.444Z,33.80
2019-02-25T02:20:55.523Z,33.80
2019-02-25T02:23:21.576Z,33.80
2019-02-25T02:25:47.656Z,33.70
2019-02-25T02:28:14.029Z,33.70
2019-02-25T02:30:40.112Z,33.70
2019-02-25T02:37:59.602Z,33.60
2019-02-25T02:45:29.611Z,33.70
2019-02-25T02:47:59.713Z,33.60
2019-02-25T02:50:25.887Z,33.50
2019-02-25T02:55:18.471Z,33.50
2019-02-25T02:57:44.819Z,33.50
2019-02-25T03:00:15.044Z,33.50
2019-02-25T03:02:41.097Z,33.40
2019-02-25T03:05:10.779Z,33.40
2019-02-25T03:14:58.267Z,33.50
2019-02-25T03:19:50.761Z,33.40
2019-02-25T03:22:17.133Z,33.40
2019-02-25T03:24:43.213Z,33.40
2019-02-25T03:27:09.265Z,33.40
2019-02-25T03:29:35.611Z,33.40
2019-02-25T03:32:01.938Z,33.30
2019-02-25T03:34:28.514Z,33.40
2019-02-25T03:36:54.560Z,33.30
2019-02-25T03:39:20.648Z,33.30
2019-02-25T03:41:47.055Z,33.30
2019-02-25T03:44:13.131Z,33.30
2019-02-25T03:46:39.179Z,33.30
2019-02-25T03:49:05.259Z,33.20
2019-02-25T03:53:57.720Z,33.20
2019-02-25T03:56:23.812Z,33.20
2019-02-25T03:58:50.088Z,33.20
2019-02-25T04:01:16.132Z,33.20
2019-02-25T04:03:42.216Z,33.10
2019-02-25T04:06:08.368Z,33.20
2019-02-25T04:08:34.420Z,33.20
2019-02-25T04:11:00.505Z,33.10
2019-02-25T04:13:26.880Z,33.10
2019-02-25T04:15:53.160Z,33.10
2019-02-25T04:18:19.545Z,33.20
2019-02-25T04:20:45.625Z,33.20
2019-02-25T04:23:11.996Z,33.00
2019-02-25T04:25:38.333Z,33.00
2019-02-25T04:28:04.388Z,33.10
2019-02-25T04:30:30.492Z,33.00
2019-02-25T04:35:22.951Z,33.00
2019-02-25T04:37:49.037Z,33.00
2019-02-25T04:40:15.483Z,33.00
2019-02-25T04:42:41.976Z,33.10
2019-02-25T04:45:11.461Z,33.00
2019-02-25T04:47:37.508Z,33.00
2019-02-25T04:50:06.658Z,33.10
2019-02-25T04:52:32.737Z,33.20
2019-02-25T04:54:58.800Z,33.30
2019-02-25T04:57:24.885Z,33.40
2019-02-25T04:59:50.959Z,33.40
2019-02-25T05:02:17.008Z,33.50
2019-02-25T05:04:43.093Z,33.50
2019-02-25T05:07:09.142Z,33.50
2019-02-25T05:09:35.211Z,33.50
2019-02-25T05:12:01.292Z,33.50
2019-02-25T05:14:27.345Z,33.50
2019-02-25T05:16:53.390Z,33.50
2019-02-25T05:19:19.482Z,33.40
2019-02-25T05:21:45.859Z,33.50
2019-02-25T05:26:38.361Z,33.50
2019-02-25T05:29:04.753Z,33.50
2019-02-25T05:31:30.812Z,33.50
2019-02-25T05:33:56.893Z,33.50
2019-02-25T05:36:22.939Z,33.40
2019-02-25T05:41:15.787Z,33.40
2019-02-25T05:43:41.885Z,33.40
2019-02-25T05:46:08.235Z,33.50
2019-02-25T05:51:01.643Z,33.40
2019-02-25T05:53:27.684Z,33.40
2019-02-25T05:58:20.700Z,33.40
2019-02-25T06:00:46.752Z,33.40
2019-02-25T06:03:12.819Z,33.40
2019-02-25T06:05:38.903Z,33.30
2019-02-25T06:08:04.943Z,33.30
2019-02-25T06:12:57.757Z,33.30
2019-02-25T06:15:23.804Z,33.20
2019-02-25T06:17:49.897Z,33.10
2019-02-25T06:20:17.140Z,33.30
2019-02-25T06:30:14.806Z,33.50
2019-02-25T06:32:40.849Z,33.50
2019-02-25T06:35:09.473Z,33.50
2019-02-25T06:37:35.804Z,33.50
2019-02-25T06:40:03.990Z,33.50
2019-02-25T06:47:23.528Z,33.60
2019-02-25T06:49:49.615Z,33.60
2019-02-25T06:52:15.942Z,33.60
2019-02-25T06:54:42.360Z,33.70
2019-02-25T06:57:08.697Z,33.60
2019-02-25T06:59:34.749Z,33.70
2019-02-25T07:02:00.823Z,33.70
2019-02-25T07:04:28.816Z,33.60
2019-02-25T07:07:11.430Z,33.60
2019-02-25T07:09:48.505Z,33.60
2019-02-25T07:12:16.452Z,33.70
2019-02-25T07:20:01.949Z,33.70
2019-02-25T07:25:10.332Z,33.80
2019-02-25T07:30:27.064Z,33.70
2019-02-25T07:33:04.316Z,33.70
2019-02-25T07:35:35.147Z,33.70
2019-02-25T07:40:34.331Z,33.70
2019-02-25T07:45:47.378Z,33.80
2019-02-25T07:48:18.465Z,33.80
2019-02-25T07:50:47.395Z,34.00
2019-02-25T07:53:16.229Z,34.00
2019-02-25T07:56:02.409Z,34.10
2019-02-25T07:58:38.580Z,34.10
2019-02-25T08:01:06.560Z,34.30
2019-02-25T08:03:43.734Z,34.40
2019-02-25T08:08:51.989Z,34.50
2019-02-25T08:11:22.484Z,34.60
2019-02-25T08:13:56.343Z,34.60
2019-02-25T08:16:27.119Z,34.70
2019-02-25T08:19:11.528Z,34.80
2019-02-25T08:21:56.339Z,34.80
2019-02-25T08:24:30.286Z,34.90
2019-02-25T08:26:59.987Z,35.00
2019-02-25T08:29:31.230Z,35.10
2019-02-25T08:31:59.520Z,35.10
2019-02-25T08:37:20.767Z,35.20
2019-02-25T08:40:04.767Z,35.20
2019-02-25T08:42:32.507Z,35.30
2019-02-25T08:45:00.523Z,35.30
2019-02-25T08:47:28.476Z,35.40
2019-02-25T08:49:55.824Z,35.30
2019-02-25T08:52:21.899Z,35.40
2019-02-25T08:54:47.952Z,35.40
2019-02-25T08:57:14.284Z,35.50
2019-02-25T08:59:40.613Z,35.50
2019-02-25T09:04:33.433Z,35.50
2019-02-25T09:06:59.519Z,35.50
2019-02-25T09:09:25.567Z,35.60
2019-02-25T09:11:51.721Z,35.60
2019-02-25T09:14:17.800Z,35.50
2019-02-25T09:16:44.123Z,35.50
2019-02-25T09:19:10.280Z,35.60
2019-02-25T09:24:02.845Z,35.60
2019-02-25T09:28:57.298Z,35.60
2019-02-25T09:31:23.321Z,35.60
2019-02-25T09:36:16.092Z,35.60
2019-02-25T09:43:35.055Z,35.60
2019-02-25T09:46:01.103Z,35.60
2019-02-25T09:48:27.179Z,35.60
2019-02-25T09:53:19.892Z,35.50
2019-02-25T09:55:45.973Z,35.50
2019-02-25T09:58:12.015Z,35.50
2019-02-25T10:00:38.091Z,35.50
2019-02-25T10:03:04.498Z,35.60
2019-02-25T10:05:30.905Z,35.60
2019-02-25T10:07:56.993Z,35.60
2019-02-25T10:10:23.042Z,35.60
2019-02-25T10:12:49.380Z,36.10
2019-02-25T10:15:18.334Z,35.60
2019-02-25T10:20:11.653Z,35.60
2019-02-25T10:22:37.728Z,36.10
2019-02-25T10:27:32.120Z,35.50
2019-02-25T10:29:58.500Z,35.60
2019-02-25T10:32:25.947Z,35.50
2019-02-25T10:37:19.255Z,35.50
2019-02-25T10:39:45.936Z,35.50
2019-02-25T10:42:13.550Z,35.50
2019-02-25T10:44:40.477Z,35.40
2019-02-25T10:47:06.523Z,35.50
2019-02-25T10:49:33.709Z,35.40
2019-02-25T10:52:00.797Z,35.50
2019-02-25T10:54:26.844Z,35.40
2019-02-25T10:56:55.854Z,35.40
2019-02-25T11:04:15.843Z,35.50
2019-02-25T11:06:43.091Z,35.50
2019-02-25T11:11:52.697Z,35.50
2019-02-25T11:14:19.204Z,35.60
2019-02-25T11:16:46.103Z,35.60
2019-02-25T11:19:13.804Z,35.60
2019-02-25T11:21:41.818Z,35.50
2019-02-25T11:24:07.845Z,35.50
2019-02-25T11:26:35.340Z,35.50
2019-02-25T11:29:01.881Z,35.50
2019-02-25T11:33:56.500Z,35.50
2019-02-25T11:36:23.721Z,35.60
2019-02-25T11:38:49.804Z,35.50
2019-02-25T11:41:15.854Z,35.50
2019-02-25T11:43:44.106Z,35.50
2019-02-25T11:46:11.075Z,35.50
2019-02-25T11:48:37.156Z,35.50
2019-02-25T11:51:03.214Z,35.50
2019-02-25T11:53:29.247Z,35.50
2019-02-25T11:55:55.325Z,35.50
2019-02-25T11:58:21.371Z,35.50
2019-02-25T12:00:47.449Z,35.60
2019-02-25T12:03:13.491Z,35.60
2019-02-25T12:05:39.872Z,35.50
2019-02-25T12:08:05.920Z,35.50
2019-02-25T12:12:58.408Z,35.60
2019-02-25T12:15:24.484Z,35.60
2019-02-25T12:17:51.827Z,35.50
2019-02-25T12:20:18.778Z,35.70
2019-02-25T12:27:42.984Z,34.70
2019-02-25T12:30:12.892Z,34.80
2019-02-25T12:35:08.884Z,34.40
2019-02-25T12:37:34.964Z,34.60
2019-02-25T12:44:54.005Z,33.90
2019-02-25T12:47:20.133Z,33.90
2019-02-25T12:49:46.179Z,34.10
2019-02-25T12:52:12.264Z,34.10
2019-02-25T12:54:38.312Z,34.00
2019-02-25T12:57:04.360Z,33.90
2019-02-25T12:59:30.795Z,33.90
2019-02-25T13:01:57.133Z,33.90
2019-02-25T13:04:23.560Z,33.90
2019-02-25T13:06:49.619Z,33.80
2019-02-25T13:09:16.016Z,33.80
2019-02-25T13:11:42.116Z,33.80
2019-02-25T13:14:08.258Z,33.70
2019-02-25T13:16:34.596Z,33.90
2019-02-25T13:19:01.029Z,33.90
2019-02-25T13:21:27.076Z,34.20
2019-02-25T13:23:54.719Z,34.40
2019-02-25T13:31:14.316Z,34.30
2019-02-25T13:33:40.514Z,34.30
2019-02-25T13:36:09.659Z,33.80
2019-02-25T13:41:03.548Z,33.90
2019-02-25T13:43:29.649Z,34.10
2019-02-25T13:45:56.184Z,33.90
2019-02-25T13:48:22.332Z,33.90
2019-02-25T13:50:48.848Z,34.00
2019-02-25T13:53:16.312Z,34.00
2019-02-25T13:55:43.520Z,33.90
2019-02-25T13:58:09.664Z,33.90
2019-02-25T14:00:36.619Z,34.00
2019-02-25T14:03:03.432Z,33.90
2019-02-25T14:05:30.281Z,33.90
2019-02-25T14:07:56.382Z,33.90
2019-02-25T14:10:22.964Z,33.90
2019-02-25T14:12:49.112Z,33.90
2019-02-25T14:15:20.901Z,33.90
2019-02-25T14:20:19.950Z,34.00
2019-02-25T14:25:22.811Z,34.00
2019-02-25T14:27:49.187Z,33.90
2019-02-25T14:32:45.375Z,33.90
2019-02-25T14:35:11.729Z,34.00
2019-02-25T14:37:37.880Z,34.10
2019-02-25T14:40:14.537Z,34.00
2019-02-25T14:42:39.361Z,34.00
2019-02-25T14:45:09.746Z,34.00
2019-02-25T14:50:08.480Z,34.10
2019-02-25T14:52:34.684Z,34.10
2019-02-25T14:55:01.327Z,34.20
2019-02-25T14:57:28.947Z,34.20
2019-02-25T14:59:56.892Z,34.20
2019-02-25T15:02:22.936Z,34.20
2019-02-25T15:04:49.240Z,34.20
2019-02-25T15:07:15.496Z,34.30
2019-02-25T15:09:43.183Z,34.30
2019-02-25T15:12:11.686Z,34.30
2019-02-25T15:14:37.559Z,34.30
2019-02-25T15:17:06.030Z,34.40
2019-02-25T15:19:34.481Z,34.40
2019-02-25T15:22:01.924Z,34.50
2019-02-25T15:24:28.255Z,34.50
2019-02-25T15:26:57.218Z,34.50
2019-02-25T15:29:22.531Z,34.60
2019-02-25T15:31:50.501Z,34.50
2019-02-25T15:34:18.843Z,34.60
2019-02-25T15:36:45.637Z,34.60
2019-02-25T15:41:40.533Z,34.70
2019-02-25T15:44:08.887Z,34.70
2019-02-25T15:46:35.259Z,34.70
2019-02-25T15:49:01.725Z,34.70
2019-02-25T15:51:28.450Z,34.80
2019-02-25T15:53:57.593Z,34.80
2019-02-25T15:56:24.025Z,34.80
2019-02-25T15:58:50.405Z,34.80
2019-02-25T16:01:17.154Z,34.90
2019-02-25T16:03:43.333Z,34.90
2019-02-25T16:08:37.657Z,34.90
2019-02-25T16:11:04.072Z,34.90
2019-02-25T16:13:33.020Z,35.00
2019-02-25T16:15:59.411Z,35.10
2019-02-25T16:20:53.925Z,35.10
2019-02-25T16:23:20.968Z,35.10
2019-02-25T16:25:48.787Z,35.20
2019-02-25T16:28:17.487Z,35.20
2019-02-25T16:33:14.331Z,35.20
2019-02-25T16:35:41.189Z,35.30
2019-02-25T16:40:36.121Z,35.40
2019-02-25T16:43:05.258Z,35.40
2019-02-25T16:45:34.945Z,35.40
2019-02-25T16:47:59.455Z,35.30
2019-02-25T16:52:52.699Z,35.50
2019-02-25T16:55:25.657Z,35.40
2019-02-25T16:57:52.291Z,35.40
2019-02-25T17:00:27.418Z,35.40
2019-02-25T17:05:21.231Z,35.50
2019-02-25T17:10:19.383Z,35.60
2019-02-25T17:12:47.944Z,35.60
2019-02-25T17:15:17.959Z,35.60
2019-02-25T17:20:16.109Z,35.70
2019-02-25T17:22:42.751Z,35.70
2019-02-25T17:25:12.103Z,35.70
2019-02-25T17:27:40.723Z,35.80
2019-02-25T17:32:35.145Z,35.80
2019-02-25T17:35:02.927Z,35.80
2019-02-25T17:37:30.973Z,35.80
2019-02-25T17:40:00.146Z,35.80
2019-02-25T17:42:26.446Z,35.80
2019-02-25T17:44:55.638Z,35.80
2019-02-25T17:49:50.140Z,35.90
2019-02-25T17:52:18.527Z,35.90
2019-02-25T17:57:13.729Z,35.90
2019-02-25T17:59:40.333Z,35.90
2019-02-25T18:04:35.156Z,36.00
2019-02-25T18:07:01.321Z,35.90
2019-02-25T18:09:27.552Z,35.90
2019-02-25T18:11:54.037Z,36.00
2019-02-25T18:14:20.219Z,36.00
2019-02-25T18:19:15.808Z,36.10
2019-02-25T18:21:43.739Z,36.00
2019-02-25T18:24:12.515Z,36.10
2019-02-25T18:26:39.063Z,36.10
2019-02-25T18:31:33.795Z,36.10
2019-02-25T18:34:00.941Z,36.10
2019-02-25T18:36:28.943Z,36.10
2019-02-25T18:38:55.249Z,36.10
2019-02-25T18:41:22.744Z,36.10
2019-02-25T18:43:49.855Z,36.10
2019-02-25T18:46:19.176Z,36.20
2019-02-25T18:51:14.199Z,36.20
2019-02-25T18:53:40.404Z,36.10
2019-02-25T18:56:11.229Z,36.10
2019-02-25T18:58:35.905Z,36.20
2019-02-25T19:01:03.986Z,36.20
2019-02-25T19:03:31.152Z,36.20
2019-02-25T19:05:59.585Z,36.10
2019-02-25T19:08:26.737Z,36.20
2019-02-25T19:10:56.706Z,36.20
2019-02-25T19:13:23.331Z,36.20
2019-02-25T19:18:19.473Z,36.20
2019-02-25T19:20:48.182Z,36.30
2019-02-25T19:23:16.555Z,36.30
2019-02-25T19:28:13.937Z,36.30
2019-02-25T19:33:11.148Z,36.30
2019-02-25T19:35:36.039Z,36.30
2019-02-25T19:38:05.130Z,36.30
2019-02-25T19:40:30.541Z,36.40
2019-02-25T19:42:57.489Z,36.30
2019-02-25T19:50:23.023Z,36.40
2019-02-25T19:52:49.168Z,36.30
2019-02-25T20:00:26.527Z,36.30
2019-02-25T20:03:05.190Z,36.30
2019-02-25T20:07:52.502Z,36.40
2019-02-25T20:10:20.485Z,36.20
2019-02-25T20:12:50.122Z,36.20
2019-02-25T20:15:20.863Z,36.00
2019-02-25T20:20:16.163Z,36.00
2019-02-25T20:22:42.476Z,36.00
2019-02-25T20:25:14.797Z,36.00
2019-02-25T20:27:42.772Z,36.00
2019-02-25T20:32:38.479Z,36.00
2019-02-25T20:35:08.749Z,36.00
2019-02-25T20:37:34.816Z,36.00
2019-02-25T20:40:04.972Z,36.10
2019-02-25T20:42:32.762Z,36.00
2019-02-25T20:45:01.891Z,36.10
2019-02-25T20:47:28.631Z,36.10
2019-02-25T20:49:56.063Z,36.00
2019-02-25T20:52:23.212Z,36.00
2019-02-25T20:54:49.686Z,36.10
2019-02-25T20:57:16.428Z,36.10
2019-02-25T20:59:44.148Z,36.10
2019-02-25T21:02:15.663Z,36.10
2019-02-25T21:04:38.717Z,36.10
2019-02-25T21:07:08.276Z,36.10
2019-02-25T21:09:35.792Z,36.10
2019-02-25T21:12:02.673Z,36.20
2019-02-25T21:14:31.420Z,36.20
2019-02-25T21:16:59.970Z,36.20
2019-02-25T21:19:24.931Z,36.20
2019-02-25T21:21:54.992Z,36.20
2019-02-25T21:24:19.199Z,36.20
2019-02-25T21:26:45.551Z,36.20
2019-02-25T21:29:11.595Z,36.20
2019-02-25T21:31:42.831Z,36.20
2019-02-25T21:34:06.389Z,36.20
2019-02-25T21:36:33.848Z,36.20
2019-02-25T21:39:00.987Z,36.20
2019-02-25T21:41:27.095Z,36.30
2019-02-25T21:43:54.045Z,36.30
2019-02-25T21:46:23.855Z,36.30
2019-02-25T21:48:53.141Z,36.30
2019-02-25T21:51:17.105Z,36.30
2019-02-25T21:53:43.476Z,36.30
2019-02-25T21:56:09.806Z,36.30
2019-02-25T21:58:35.852Z,36.40
2019-02-25T22:01:02.162Z,36.30
2019-02-25T22:03:28.240Z,36.30
2019-02-25T22:05:56.223Z,36.40
2019-02-25T22:08:24.449Z,36.40
2019-02-25T22:10:50.875Z,36.30
2019-02-25T22:13:18.453Z,36.40
2019-02-25T22:15:45.319Z,36.40
2019-02-25T22:18:12.344Z,36.40
2019-02-25T22:20:41.797Z,36.30
2019-02-25T22:23:08.051Z,36.30
2019-02-25T22:25:34.855Z,36.30
2019-02-25T22:28:03.222Z,36.40
2019-02-25T22:30:29.261Z,36.30
2019-02-25T22:32:55.340Z,36.40
2019-02-25T22:35:21.628Z,36.40
2019-02-25T22:37:50.222Z,36.40
2019-02-25T22:40:17.290Z,36.40
2019-02-25T22:42:47.138Z,36.40
2019-02-25T22:47:48.704Z,36.40
2019-02-25T22:50:15.376Z,36.30
2019-02-25T22:52:42.419Z,36.40
2019-02-25T22:55:12.210Z,36.40
2019-02-25T23:00:30.193Z,36.40
2019-02-25T23:02:56.824Z,36.40
2019-02-25T23:05:26.803Z,36.40
2019-02-25T23:10:23.982Z,36.30
2019-02-25T23:12:50.049Z,36.30
2019-02-25T23:15:18.137Z,36.30
2019-02-25T23:17:44.881Z,36.30
2019-02-25T23:22:39.032Z,36.30
2019-02-25T23:27:34.473Z,36.40
2019-02-25T23:30:10.262Z,36.40
2019-02-25T23:32:38.809Z,36.50
2019-02-25T23:35:09.414Z,36.50
2019-02-25T23:37:33.736Z,36.50
2019-02-25T23:40:04.191Z,36.50
2019-02-25T23:42:28.092Z,36.50
2019-02-25T23:44:54.172Z,36.60
2019-02-25T23:47:20.554Z,36.60
2019-02-25T23:49:48.491Z,36.60
2019-02-25T23:54:43.341Z,36.70
2019-02-25T23:57:09.876Z,36.70
2019-02-25T23:59:36.199Z,36.70
